sensor_id;sensor_type;location;lat;lon;timestamp;pressure;altitude;pressure_sealevel;temperature;humidity
70544;BME280;58097;48.364;-1.224;2023-06-24T00:00:56;100574.50;;;19.80;57.47
70544;BME280;58097;48.364;-1.224;2023-06-24T00:03:22;100582.06;;;19.80;57.40
70544;BME280;58097;48.364;-1.224;2023-06-24T00:05:47;100580.97;;;19.81;57.48
70544;BME280;58097;48.364;-1.224;2023-06-24T00:08:17;100575.59;;;19.79;57.50
70544;BME280;58097;48.364;-1.224;2023-06-24T00:10:45;100586.16;;;19.77;57.97
70544;BME280;58097;48.364;-1.224;2023-06-24T00:13:12;100584.63;;;19.75;58.24
70544;BME280;58097;48.364;-1.224;2023-06-24T00:15:37;100581.34;;;19.71;58.45
70544;BME280;58097;48.364;-1.224;2023-06-24T00:18:08;100579.84;;;19.69;58.38
70544;BME280;58097;48.364;-1.224;2023-06-24T00:20:34;100581.97;;;19.67;58.44
70544;BME280;58097;48.364;-1.224;2023-06-24T00:22:59;100575.50;;;19.66;58.31
70544;BME280;58097;48.364;-1.224;2023-06-24T00:25:24;100570.94;;;19.65;58.44
70544;BME280;58097;48.364;-1.224;2023-06-24T00:27:50;100571.13;;;19.64;58.69
70544;BME280;58097;48.364;-1.224;2023-06-24T00:30:16;100564.66;;;19.63;58.78
70544;BME280;58097;48.364;-1.224;2023-06-24T00:32:41;100564.88;;;19.62;58.81
70544;BME280;58097;48.364;-1.224;2023-06-24T00:35:07;100563.56;;;19.58;59.10
70544;BME280;58097;48.364;-1.224;2023-06-24T00:37:32;100559.59;;;19.52;59.29
70544;BME280;58097;48.364;-1.224;2023-06-24T00:39:58;100562.16;;;19.47;59.00
70544;BME280;58097;48.364;-1.224;2023-06-24T00:42:23;100564.28;;;19.45;58.94
70544;BME280;58097;48.364;-1.224;2023-06-24T00:44:49;100557.16;;;19.42;59.27
70544;BME280;58097;48.364;-1.224;2023-06-24T00:47:15;100562.09;;;19.40;59.46
70544;BME280;58097;48.364;-1.224;2023-06-24T00:49:40;100562.31;;;19.39;59.58
70544;BME280;58097;48.364;-1.224;2023-06-24T00:52:11;100561.63;;;19.37;60.25
70544;BME280;58097;48.364;-1.224;2023-06-24T00:54:40;100560.97;;;19.35;60.90
70544;BME280;58097;48.364;-1.224;2023-06-24T00:57:06;100560.50;;;19.31;60.55
70544;BME280;58097;48.364;-1.224;2023-06-24T00:59:31;100558.78;;;19.30;60.29
70544;BME280;58097;48.364;-1.224;2023-06-24T01:01:57;100558.97;;;19.29;60.34
70544;BME280;58097;48.364;-1.224;2023-06-24T01:04:23;100558.97;;;19.29;60.33
70544;BME280;58097;48.364;-1.224;2023-06-24T01:06:50;100546.91;;;19.28;60.74
70544;BME280;58097;48.364;-1.224;2023-06-24T01:09:15;100558.09;;;19.28;60.75
70544;BME280;58097;48.364;-1.224;2023-06-24T01:11:41;100554.84;;;19.25;60.74
70544;BME280;58097;48.364;-1.224;2023-06-24T01:14:06;100543.84;;;19.23;61.21
70544;BME280;58097;48.364;-1.224;2023-06-24T01:19:33;100541.44;;;19.20;61.09
70544;BME280;58097;48.364;-1.224;2023-06-24T01:22:19;100538.84;;;19.18;61.41
70544;BME280;58097;48.364;-1.224;2023-06-24T01:28:15;100536.91;;;19.19;62.12
70544;BME280;58097;48.364;-1.224;2023-06-24T01:33:22;100540.31;;;19.14;62.53
70544;BME280;58097;48.364;-1.224;2023-06-24T01:35:50;100536.19;;;19.10;62.56
70544;BME280;58097;48.364;-1.224;2023-06-24T01:38:30;100536.97;;;19.04;62.29
70544;BME280;58097;48.364;-1.224;2023-06-24T01:40:57;100534.78;;;19.00;63.14
70544;BME280;58097;48.364;-1.224;2023-06-24T01:43:24;100534.13;;;18.98;63.40
70544;BME280;58097;48.364;-1.224;2023-06-24T01:45:52;100532.59;;;18.95;63.51
70544;BME280;58097;48.364;-1.224;2023-06-24T01:48:25;100532.59;;;18.95;63.99
70544;BME280;58097;48.364;-1.224;2023-06-24T01:53:27;100523.88;;;18.83;63.89
70544;BME280;58097;48.364;-1.224;2023-06-24T01:55:54;100523.22;;;18.81;63.76
70544;BME280;58097;48.364;-1.224;2023-06-24T01:58:22;100530.03;;;18.79;64.25
70544;BME280;58097;48.364;-1.224;2023-06-24T02:00:48;100525.44;;;18.71;64.46
70544;BME280;58097;48.364;-1.224;2023-06-24T02:03:15;100523.06;;;18.68;64.80
70544;BME280;58097;48.364;-1.224;2023-06-24T02:05:44;100530.78;;;18.66;65.23
70544;BME280;58097;48.364;-1.224;2023-06-24T02:08:10;100526.34;;;18.57;65.03
70544;BME280;58097;48.364;-1.224;2023-06-24T02:10:38;100521.56;;;18.51;65.81
70544;BME280;58097;48.364;-1.224;2023-06-24T02:13:05;100525.78;;;18.47;65.63
70544;BME280;58097;48.364;-1.224;2023-06-24T02:15:33;100523.13;;;18.39;65.72
70544;BME280;58097;48.364;-1.224;2023-06-24T02:18:01;100525.66;;;18.34;66.37
70544;BME280;58097;48.364;-1.224;2023-06-24T02:20:28;100526.63;;;18.26;65.66
70544;BME280;58097;48.364;-1.224;2023-06-24T02:22:56;100523.72;;;18.19;66.31
70544;BME280;58097;48.364;-1.224;2023-06-24T02:25:23;100524.53;;;18.13;66.31
70544;BME280;58097;48.364;-1.224;2023-06-24T02:27:50;100524.72;;;18.12;66.33
70544;BME280;58097;48.364;-1.224;2023-06-24T02:30:16;100519.72;;;18.07;66.87
70544;BME280;58097;48.364;-1.224;2023-06-24T02:32:42;100521.66;;;18.07;66.65
70544;BME280;58097;48.364;-1.224;2023-06-24T02:35:08;100514.50;;;18.04;66.96
70544;BME280;58097;48.364;-1.224;2023-06-24T02:37:33;100508.06;;;18.04;66.86
70544;BME280;58097;48.364;-1.224;2023-06-24T02:39:59;100510.84;;;18.04;67.80
70544;BME280;58097;48.364;-1.224;2023-06-24T02:42:24;100512.31;;;18.00;67.66
70544;BME280;58097;48.364;-1.224;2023-06-24T02:44:50;100505.19;;;17.97;67.97
70544;BME280;58097;48.364;-1.224;2023-06-24T02:47:16;100507.97;;;17.97;67.98
70544;BME280;58097;48.364;-1.224;2023-06-24T02:49:45;100513.75;;;17.95;67.80
70544;BME280;58097;48.364;-1.224;2023-06-24T02:52:12;100510.97;;;17.95;67.17
70544;BME280;58097;48.364;-1.224;2023-06-24T02:54:38;100519.84;;;17.99;67.31
70544;BME280;58097;48.364;-1.224;2023-06-24T02:57:05;100511.44;;;17.99;67.38
70544;BME280;58097;48.364;-1.224;2023-06-24T02:59:32;100512.31;;;18.00;68.11
70544;BME280;58097;48.364;-1.224;2023-06-24T03:01:57;100507.97;;;17.97;68.56
70544;BME280;58097;48.364;-1.224;2023-06-24T03:04:25;100512.91;;;17.95;68.17
70544;BME280;58097;48.364;-1.224;2023-06-24T03:06:51;100499.28;;;17.92;69.21
70544;BME280;58097;48.364;-1.224;2023-06-24T03:09:18;100507.00;;;17.90;69.02
70544;BME280;58097;48.364;-1.224;2023-06-24T03:11:44;100507.38;;;17.87;68.92
70544;BME280;58097;48.364;-1.224;2023-06-24T03:14:10;100505.84;;;17.84;68.66
70544;BME280;58097;48.364;-1.224;2023-06-24T03:16:35;100503.91;;;17.85;68.76
70544;BME280;58097;48.364;-1.224;2023-06-24T03:19:01;100502.84;;;17.86;68.83
70544;BME280;58097;48.364;-1.224;2023-06-24T03:21:27;100509.31;;;17.86;69.13
70544;BME280;58097;48.364;-1.224;2023-06-24T03:23:54;100502.84;;;17.86;69.27
70544;BME280;58097;48.364;-1.224;2023-06-24T03:26:19;100502.00;;;17.85;69.23
70544;BME280;58097;48.364;-1.224;2023-06-24T03:28:44;100500.66;;;17.81;68.91
70544;BME280;58097;48.364;-1.224;2023-06-24T03:31:10;100497.84;;;17.81;69.18
70544;BME280;58097;48.364;-1.224;2023-06-24T03:33:35;100492.47;;;17.80;68.94
70544;BME280;58097;48.364;-1.224;2023-06-24T03:36:00;100496.97;;;17.81;68.70
70544;BME280;58097;48.364;-1.224;2023-06-24T03:38:26;100500.44;;;17.83;68.52
70544;BME280;58097;48.364;-1.224;2023-06-24T03:40:53;100500.44;;;17.83;68.55
70544;BME280;58097;48.364;-1.224;2023-06-24T03:43:18;100499.38;;;17.84;68.50
70544;BME280;58097;48.364;-1.224;2023-06-24T03:45:43;100502.19;;;17.84;69.20
70544;BME280;58097;48.364;-1.224;2023-06-24T03:48:09;100508.16;;;17.81;69.08
70544;BME280;58097;48.364;-1.224;2023-06-24T03:50:35;100511.81;;;17.81;69.38
70544;BME280;58097;48.364;-1.224;2023-06-24T03:53:01;100508.16;;;17.81;69.66
70544;BME280;58097;48.364;-1.224;2023-06-24T03:55:26;100500.38;;;17.76;69.40
70544;BME280;58097;48.364;-1.224;2023-06-24T03:57:52;100500.09;;;17.71;69.66
70544;BME280;58097;48.364;-1.224;2023-06-24T04:00:17;100500.28;;;17.70;69.14
70544;BME280;58097;48.364;-1.224;2023-06-24T04:02:45;100501.81;;;17.72;68.98
70544;BME280;58097;48.364;-1.224;2023-06-24T04:05:11;100503.34;;;17.75;69.01
70544;BME280;58097;48.364;-1.224;2023-06-24T04:07:36;100504.22;;;17.75;69.11
70544;BME280;58097;48.364;-1.224;2023-06-24T04:10:03;100511.56;;;17.76;68.88
70544;BME280;58097;48.364;-1.224;2023-06-24T04:12:35;100506.81;;;17.77;68.44
70544;BME280;58097;48.364;-1.224;2023-06-24T04:15:04;100506.34;;;17.73;68.87
70544;BME280;58097;48.364;-1.224;2023-06-24T04:17:30;100509.72;;;17.69;68.81
70544;BME280;58097;48.364;-1.224;2023-06-24T04:19:56;100495.94;;;17.67;69.18
70544;BME280;58097;48.364;-1.224;2023-06-24T04:22:21;100503.44;;;17.67;68.89
70544;BME280;58097;48.364;-1.224;2023-06-24T04:24:47;100495.25;;;17.65;69.29
70544;BME280;58097;48.364;-1.224;2023-06-24T04:27:12;100499.25;;;17.62;69.49
70544;BME280;58097;48.364;-1.224;2023-06-24T04:29:37;100499.16;;;17.56;69.52
70544;BME280;58097;48.364;-1.224;2023-06-24T04:32:03;100504.09;;;17.54;69.89
70544;BME280;58097;48.364;-1.224;2023-06-24T04:34:28;100496.09;;;17.51;70.03
70544;BME280;58097;48.364;-1.224;2023-06-24T04:36:54;100494.16;;;17.51;69.61
70544;BME280;58097;48.364;-1.224;2023-06-24T04:39:19;100497.81;;;17.52;69.24
70544;BME280;58097;48.364;-1.224;2023-06-24T04:41:44;100495.22;;;17.50;69.67
70544;BME280;58097;48.364;-1.224;2023-06-24T04:44:11;100491.09;;;17.46;69.47
70544;BME280;58097;48.364;-1.224;2023-06-24T04:46:36;100492.53;;;17.42;69.81
70544;BME280;58097;48.364;-1.224;2023-06-24T04:49:02;100501.78;;;17.43;69.57
70544;BME280;58097;48.364;-1.224;2023-06-24T04:51:27;100501.78;;;17.43;70.08
70544;BME280;58097;48.364;-1.224;2023-06-24T04:53:53;100505.06;;;17.46;70.37
70544;BME280;58097;48.364;-1.224;2023-06-24T04:56:18;100505.72;;;17.48;70.15
70544;BME280;58097;48.364;-1.224;2023-06-24T04:58:43;100505.16;;;17.53;70.67
70544;BME280;58097;48.364;-1.224;2023-06-24T05:01:09;100502.53;;;17.51;70.70
70544;BME280;58097;48.364;-1.224;2023-06-24T05:03:34;100513.72;;;17.51;70.84
70544;BME280;58097;48.364;-1.224;2023-06-24T05:06:00;100509.00;;;17.52;70.59
70544;BME280;58097;48.364;-1.224;2023-06-24T05:08:25;100518.25;;;17.52;70.74
70544;BME280;58097;48.364;-1.224;2023-06-24T05:10:50;100509.28;;;17.57;71.31
70544;BME280;58097;48.364;-1.224;2023-06-24T05:13:16;100509.75;;;17.60;71.08
70544;BME280;58097;48.364;-1.224;2023-06-24T05:15:41;100508.50;;;17.63;71.06
70544;BME280;58097;48.364;-1.224;2023-06-24T05:18:06;100508.34;;;17.64;71.22
70544;BME280;58097;48.364;-1.224;2023-06-24T05:20:32;100510.09;;;17.65;71.01
70544;BME280;58097;48.364;-1.224;2023-06-24T05:22:57;100505.00;;;17.69;71.10
70544;BME280;58097;48.364;-1.224;2023-06-24T05:25:22;100497.28;;;17.71;70.40
70544;BME280;58097;48.364;-1.224;2023-06-24T05:27:48;100502.69;;;17.73;70.78
70544;BME280;58097;48.364;-1.224;2023-06-24T05:30:14;100499.31;;;17.77;70.97
70544;BME280;58097;48.364;-1.224;2023-06-24T05:32:39;100500.44;;;17.83;70.70
70544;BME280;58097;48.364;-1.224;2023-06-24T05:35:05;100501.59;;;17.88;70.95
70544;BME280;58097;48.364;-1.224;2023-06-24T05:37:31;100501.50;;;17.97;71.59
70544;BME280;58097;48.364;-1.224;2023-06-24T05:39:56;100499.06;;;18.08;71.53
70544;BME280;58097;48.364;-1.224;2023-06-24T05:42:22;100499.94;;;18.23;71.81
70544;BME280;58097;48.364;-1.224;2023-06-24T05:44:48;100500.72;;;18.39;70.88
70544;BME280;58097;48.364;-1.224;2023-06-24T05:47:13;100497.28;;;18.58;70.85
70544;BME280;58097;48.364;-1.224;2023-06-24T05:49:39;100499.94;;;18.81;71.13
70544;BME280;58097;48.364;-1.224;2023-06-24T05:52:05;100500.50;;;18.98;70.74
70544;BME280;58097;48.364;-1.224;2023-06-24T05:54:30;100505.22;;;19.18;71.10
70544;BME280;58097;48.364;-1.224;2023-06-24T05:56:55;100506.63;;;19.36;70.98
70544;BME280;58097;48.364;-1.224;2023-06-24T05:59:21;100504.03;;;19.56;70.65
70544;BME280;58097;48.364;-1.224;2023-06-24T06:01:46;100489.44;;;19.67;70.55
70544;BME280;58097;48.364;-1.224;2023-06-24T06:04:12;100499.00;;;19.79;70.64
70544;BME280;58097;48.364;-1.224;2023-06-24T06:06:37;100508.34;;;19.93;70.42
70544;BME280;58097;48.364;-1.224;2023-06-24T06:09:05;100502.16;;;20.04;70.16
70544;BME280;58097;48.364;-1.224;2023-06-24T06:11:30;100510.63;;;20.17;70.21
70544;BME280;58097;48.364;-1.224;2023-06-24T06:13:56;100505.50;;;20.27;70.22
70544;BME280;58097;48.364;-1.224;2023-06-24T06:16:21;100511.19;;;20.40;69.64
70544;BME280;58097;48.364;-1.224;2023-06-24T06:18:47;100513.41;;;20.58;70.03
70544;BME280;58097;48.364;-1.224;2023-06-24T06:21:12;100503.06;;;20.79;69.67
70544;BME280;58097;48.364;-1.224;2023-06-24T06:23:37;100505.47;;;20.95;69.96
70544;BME280;58097;48.364;-1.224;2023-06-24T06:26:03;100506.78;;;21.12;69.78
70544;BME280;58097;48.364;-1.224;2023-06-24T06:28:28;100507.66;;;21.32;69.40
70544;BME280;58097;48.364;-1.224;2023-06-24T06:30:54;100507.88;;;21.51;69.29
70544;BME280;58097;48.364;-1.224;2023-06-24T06:33:19;100502.63;;;21.68;68.95
70544;BME280;58097;48.364;-1.224;2023-06-24T06:35:45;100511.69;;;21.89;68.81
70544;BME280;58097;48.364;-1.224;2023-06-24T06:38:10;100516.88;;;22.06;68.58
70544;BME280;58097;48.364;-1.224;2023-06-24T06:40:35;100513.56;;;22.22;68.28
70544;BME280;58097;48.364;-1.224;2023-06-24T06:43:01;100514.34;;;22.42;68.01
70544;BME280;58097;48.364;-1.224;2023-06-24T06:45:26;100520.13;;;22.54;67.24
70544;BME280;58097;48.364;-1.224;2023-06-24T06:47:51;100518.56;;;22.65;66.76
70544;BME280;58097;48.364;-1.224;2023-06-24T06:50:17;100516.56;;;22.72;66.06
70544;BME280;58097;48.364;-1.224;2023-06-24T06:52:42;100519.53;;;22.83;64.21
70544;BME280;58097;48.364;-1.224;2023-06-24T06:55:08;100518.16;;;22.99;64.87
70544;BME280;58097;48.364;-1.224;2023-06-24T06:57:34;100517.41;;;23.10;63.28
70544;BME280;58097;48.364;-1.224;2023-06-24T06:59:59;100510.63;;;23.18;64.55
70544;BME280;58097;48.364;-1.224;2023-06-24T07:02:25;100515.00;;;23.39;65.39
70544;BME280;58097;48.364;-1.224;2023-06-24T07:04:50;100516.69;;;23.46;62.24
70544;BME280;58097;48.364;-1.224;2023-06-24T07:07:16;100514.00;;;23.58;62.28
70544;BME280;58097;48.364;-1.224;2023-06-24T07:09:42;100528.50;;;23.62;60.00
70544;BME280;58097;48.364;-1.224;2023-06-24T07:12:08;100517.84;;;23.64;61.79
70544;BME280;58097;48.364;-1.224;2023-06-24T07:14:33;100523.91;;;23.86;63.56
70544;BME280;58097;48.364;-1.224;2023-06-24T07:16:58;100511.31;;;24.06;62.18
70544;BME280;58097;48.364;-1.224;2023-06-24T07:19:24;100507.16;;;24.09;60.96
70544;BME280;58097;48.364;-1.224;2023-06-24T07:21:49;100512.63;;;24.22;59.98
70544;BME280;58097;48.364;-1.224;2023-06-24T07:24:15;100509.34;;;24.07;59.30
70544;BME280;58097;48.364;-1.224;2023-06-24T07:26:40;100512.94;;;24.14;60.00
70544;BME280;58097;48.364;-1.224;2023-06-24T07:29:06;100504.53;;;24.26;59.41
70544;BME280;58097;48.364;-1.224;2023-06-24T07:31:32;100505.00;;;24.23;57.80
70544;BME280;58097;48.364;-1.224;2023-06-24T07:33:58;100514.53;;;24.28;58.36
70544;BME280;58097;48.364;-1.224;2023-06-24T07:36:23;100511.03;;;24.33;56.86
70544;BME280;58097;48.364;-1.224;2023-06-24T07:38:48;100512.78;;;24.27;57.15
70544;BME280;58097;48.364;-1.224;2023-06-24T07:41:14;100515.34;;;24.35;56.92
70544;BME280;58097;48.364;-1.224;2023-06-24T07:43:39;100510.16;;;24.32;58.40
70544;BME280;58097;48.364;-1.224;2023-06-24T07:46:04;100507.00;;;24.40;56.99
70544;BME280;58097;48.364;-1.224;2023-06-24T07:48:30;100511.88;;;24.33;55.25
70544;BME280;58097;48.364;-1.224;2023-06-24T07:50:55;100501.06;;;24.30;55.86
70544;BME280;58097;48.364;-1.224;2023-06-24T07:53:20;100508.72;;;24.42;57.63
70544;BME280;58097;48.364;-1.224;2023-06-24T07:55:45;100507.59;;;24.61;57.17
70544;BME280;58097;48.364;-1.224;2023-06-24T07:58:11;100502.03;;;24.84;58.25
70544;BME280;58097;48.364;-1.224;2023-06-24T08:00:36;100504.41;;;24.87;54.68
70544;BME280;58097;48.364;-1.224;2023-06-24T08:03:02;100494.66;;;24.83;55.93
70544;BME280;58097;48.364;-1.224;2023-06-24T08:05:27;100495.97;;;24.99;56.53
70544;BME280;58097;48.364;-1.224;2023-06-24T08:07:53;100492.78;;;25.07;55.18
70544;BME280;58097;48.364;-1.224;2023-06-24T08:10:18;100495.31;;;24.97;55.75
70544;BME280;58097;48.364;-1.224;2023-06-24T08:12:44;100482.88;;;25.16;57.30
70544;BME280;58097;48.364;-1.224;2023-06-24T08:15:09;100479.78;;;25.41;56.63
70544;BME280;58097;48.364;-1.224;2023-06-24T08:17:35;100483.88;;;25.57;56.29
70544;BME280;58097;48.364;-1.224;2023-06-24T08:20:01;100480.81;;;25.58;56.24
70544;BME280;58097;48.364;-1.224;2023-06-24T08:22:27;100488.34;;;25.76;55.90
70544;BME280;58097;48.364;-1.224;2023-06-24T08:24:53;100486.50;;;25.82;53.96
70544;BME280;58097;48.364;-1.224;2023-06-24T08:27:18;100487.19;;;25.66;54.33
70544;BME280;58097;48.364;-1.224;2023-06-24T08:29:43;100483.16;;;25.85;55.93
70544;BME280;58097;48.364;-1.224;2023-06-24T08:32:09;100486.63;;;25.75;53.93
70544;BME280;58097;48.364;-1.224;2023-06-24T08:34:34;100475.78;;;25.72;53.45
70544;BME280;58097;48.364;-1.224;2023-06-24T08:36:59;100480.81;;;25.82;53.42
70544;BME280;58097;48.364;-1.224;2023-06-24T08:39:25;100482.38;;;26.01;53.92
70544;BME280;58097;48.364;-1.224;2023-06-24T08:41:50;100476.59;;;26.08;54.35
70544;BME280;58097;48.364;-1.224;2023-06-24T08:44:16;100472.66;;;25.97;52.23
70544;BME280;58097;48.364;-1.224;2023-06-24T08:46:41;100472.09;;;25.83;52.89
70544;BME280;58097;48.364;-1.224;2023-06-24T08:52:02;100467.97;;;26.14;52.52
70544;BME280;58097;48.364;-1.224;2023-06-24T08:54:28;100460.63;;;26.30;53.34
70544;BME280;58097;48.364;-1.224;2023-06-24T08:56:55;100464.53;;;26.52;53.68
70544;BME280;58097;48.364;-1.224;2023-06-24T08:59:21;100465.22;;;26.60;51.68
70544;BME280;58097;48.364;-1.224;2023-06-24T09:01:47;100457.84;;;26.59;51.08
70544;BME280;58097;48.364;-1.224;2023-06-24T09:04:12;100459.03;;;26.46;51.15
70544;BME280;58097;48.364;-1.224;2023-06-24T09:06:38;100458.56;;;26.66;53.17
70544;BME280;58097;48.364;-1.224;2023-06-24T09:09:03;100456.81;;;26.93;53.26
70544;BME280;58097;48.364;-1.224;2023-06-24T09:11:30;100454.13;;;26.86;50.84
70544;BME280;58097;48.364;-1.224;2023-06-24T09:13:58;100454.13;;;26.86;51.14
70544;BME280;58097;48.364;-1.224;2023-06-24T09:16:25;100452.28;;;26.92;50.76
70544;BME280;58097;48.364;-1.224;2023-06-24T09:18:51;100454.72;;;27.00;50.60
70544;BME280;58097;48.364;-1.224;2023-06-24T09:21:27;100445.78;;;27.08;51.36
70544;BME280;58097;48.364;-1.224;2023-06-24T09:23:57;100446.13;;;27.12;49.41
70544;BME280;58097;48.364;-1.224;2023-06-24T09:26:24;100442.28;;;27.18;50.00
70544;BME280;58097;48.364;-1.224;2023-06-24T09:28:50;100435.38;;;27.14;50.45
70544;BME280;58097;48.364;-1.224;2023-06-24T09:31:17;100431.53;;;27.20;49.39
70544;BME280;58097;48.364;-1.224;2023-06-24T09:33:42;100431.16;;;27.33;49.21
70544;BME280;58097;48.364;-1.224;2023-06-24T09:36:11;100430.97;;;27.40;49.04
70544;BME280;58097;48.364;-1.224;2023-06-24T09:38:38;100430.97;;;27.40;49.51
70544;BME280;58097;48.364;-1.224;2023-06-24T09:41:07;100430.63;;;27.53;50.16
70544;BME280;58097;48.364;-1.224;2023-06-24T09:43:34;100427.19;;;27.68;47.99
70544;BME280;58097;48.364;-1.224;2023-06-24T09:46:01;100418.22;;;27.76;48.86
70544;BME280;58097;48.364;-1.224;2023-06-24T09:48:27;100417.22;;;27.65;47.35
70544;BME280;58097;48.364;-1.224;2023-06-24T09:50:54;100418.66;;;27.68;47.94
70544;BME280;58097;48.364;-1.224;2023-06-24T09:53:21;100421.19;;;27.48;47.71
70544;BME280;58097;48.364;-1.224;2023-06-24T09:55:48;100413.41;;;27.43;46.29
70544;BME280;58097;48.364;-1.224;2023-06-24T09:58:16;100407.66;;;27.55;46.75
70544;BME280;58097;48.364;-1.224;2023-06-24T10:00:43;100416.47;;;27.75;48.55
70544;BME280;58097;48.364;-1.224;2023-06-24T10:03:10;100403.91;;;27.88;45.96
70544;BME280;58097;48.364;-1.224;2023-06-24T10:05:36;100418.03;;;27.83;44.32
70544;BME280;58097;48.364;-1.224;2023-06-24T10:08:04;100414.38;;;27.65;45.50
70544;BME280;58097;48.364;-1.224;2023-06-24T10:10:30;100406.59;;;27.61;45.44
70544;BME280;58097;48.364;-1.224;2023-06-24T10:12:56;100402.00;;;27.38;44.24
70544;BME280;58097;48.364;-1.224;2023-06-24T10:15:22;100407.72;;;27.21;43.31
70544;BME280;58097;48.364;-1.224;2023-06-24T10:17:47;100400.19;;;27.15;44.38
70544;BME280;58097;48.364;-1.224;2023-06-24T10:20:23;100401.06;;;27.49;46.59
70544;BME280;58097;48.364;-1.224;2023-06-24T10:22:50;100395.34;;;27.66;47.34
70544;BME280;58097;48.364;-1.224;2023-06-24T10:25:16;100390.16;;;28.01;45.87
70544;BME280;58097;48.364;-1.224;2023-06-24T10:27:41;100396.72;;;27.80;44.32
70544;BME280;58097;48.364;-1.224;2023-06-24T10:30:08;100386.00;;;28.09;45.70
70544;BME280;58097;48.364;-1.224;2023-06-24T10:32:41;100386.44;;;28.23;44.89
70544;BME280;58097;48.364;-1.224;2023-06-24T10:35:38;100373.63;;;28.20;45.34
70544;BME280;58097;48.364;-1.224;2023-06-24T10:38:09;100374.63;;;28.31;44.44
70544;BME280;58097;48.364;-1.224;2023-06-24T10:40:37;100382.22;;;28.47;45.86
70544;BME280;58097;48.364;-1.224;2023-06-24T10:45:54;100368.41;;;28.88;46.50
70544;BME280;58097;48.364;-1.224;2023-06-24T10:48:20;100373.63;;;28.96;45.34
70544;BME280;58097;48.364;-1.224;2023-06-24T10:50:46;100367.66;;;28.97;44.86
70544;BME280;58097;48.364;-1.224;2023-06-24T10:53:12;100370.03;;;28.52;43.88
70544;BME280;58097;48.364;-1.224;2023-06-24T10:55:38;100377.09;;;28.49;42.21
70544;BME280;58097;48.364;-1.224;2023-06-24T10:58:11;100363.38;;;28.68;44.04
70544;BME280;58097;48.364;-1.224;2023-06-24T11:00:41;100367.63;;;28.65;43.74
70544;BME280;58097;48.364;-1.224;2023-06-24T11:05:38;100354.66;;;28.80;44.31
70544;BME280;58097;48.364;-1.224;2023-06-24T11:08:05;100364.03;;;29.07;44.11
70544;BME280;58097;48.364;-1.224;2023-06-24T11:10:30;100367.50;;;29.14;44.10
70544;BME280;58097;48.364;-1.224;2023-06-24T11:12:56;100358.47;;;29.22;42.40
70544;BME280;58097;48.364;-1.224;2023-06-24T11:15:24;100359.66;;;29.32;42.51
70544;BME280;58097;48.364;-1.224;2023-06-24T11:17:51;100352.19;;;29.20;41.42
70544;BME280;58097;48.364;-1.224;2023-06-24T11:20:17;100347.38;;;29.26;43.91
70544;BME280;58097;48.364;-1.224;2023-06-24T11:22:43;100345.31;;;29.53;42.19
70544;BME280;58097;48.364;-1.224;2023-06-24T11:25:19;100339.00;;;29.46;41.86
70544;BME280;58097;48.364;-1.224;2023-06-24T11:27:45;100342.69;;;29.47;40.19
70544;BME280;58097;48.364;-1.224;2023-06-24T11:30:11;100334.50;;;29.55;42.29
70544;BME280;58097;48.364;-1.224;2023-06-24T11:35:05;100321.75;;;29.68;42.19
70544;BME280;58097;48.364;-1.224;2023-06-24T11:37:31;100324.00;;;29.66;39.61
70544;BME280;58097;48.364;-1.224;2023-06-24T11:40:04;100320.59;;;29.69;39.34
70544;BME280;58097;48.364;-1.224;2023-06-24T11:42:31;100328.03;;;29.70;41.08
70544;BME280;58097;48.364;-1.224;2023-06-24T11:45:04;100314.97;;;29.79;41.42
70544;BME280;58097;48.364;-1.224;2023-06-24T11:47:33;100304.81;;;30.04;42.84
70544;BME280;58097;48.364;-1.224;2023-06-24T11:49:59;100313.13;;;30.15;40.35
70544;BME280;58097;48.364;-1.224;2023-06-24T11:52:41;100301.97;;;30.04;37.09
70544;BME280;58097;48.364;-1.224;2023-06-24T11:55:23;100305.72;;;30.09;39.21
70544;BME280;58097;48.364;-1.224;2023-06-24T11:57:56;100304.88;;;30.19;38.41
70544;BME280;58097;48.364;-1.224;2023-06-24T12:00:29;100295.47;;;30.13;39.27
70544;BME280;58097;48.364;-1.224;2023-06-24T12:03:03;100289.16;;;30.06;36.69
70544;BME280;58097;48.364;-1.224;2023-06-24T12:05:31;100285.94;;;29.82;39.45
70544;BME280;58097;48.364;-1.224;2023-06-24T12:08:07;100290.50;;;29.88;38.02
70544;BME280;58097;48.364;-1.224;2023-06-24T12:10:33;100279.28;;;29.56;37.04
70544;BME280;58097;48.364;-1.224;2023-06-24T12:13:00;100279.03;;;29.68;38.63
70544;BME280;58097;48.364;-1.224;2023-06-24T12:15:26;100273.59;;;29.67;37.91
70544;BME280;58097;48.364;-1.224;2023-06-24T12:17:52;100268.75;;;29.67;38.20
70544;BME280;58097;48.364;-1.224;2023-06-24T12:20:17;100263.91;;;29.63;36.86
70544;BME280;58097;48.364;-1.224;2023-06-24T12:22:47;100267.69;;;29.78;37.06
70544;BME280;58097;48.364;-1.224;2023-06-24T12:25:13;100264.22;;;29.66;38.43
70544;BME280;58097;48.364;-1.224;2023-06-24T12:27:38;100256.63;;;29.35;37.27
70544;BME280;58097;48.364;-1.224;2023-06-24T12:30:06;100253.38;;;29.58;36.94
70544;BME280;58097;48.364;-1.224;2023-06-24T12:32:31;100254.50;;;29.62;39.37
70544;BME280;58097;48.364;-1.224;2023-06-24T12:34:57;100250.00;;;29.76;39.09
70544;BME280;58097;48.364;-1.224;2023-06-24T12:37:22;100249.50;;;29.95;40.21
70544;BME280;58097;48.364;-1.224;2023-06-24T12:39:47;100256.69;;;30.12;37.90
70544;BME280;58097;48.364;-1.224;2023-06-24T12:42:13;100241.03;;;30.30;39.95
70544;BME280;58097;48.364;-1.224;2023-06-24T12:44:38;100235.34;;;30.45;38.33
70544;BME280;58097;48.364;-1.224;2023-06-24T12:47:04;100244.47;;;30.47;36.62
70544;BME280;58097;48.364;-1.224;2023-06-24T12:49:30;100238.19;;;30.45;35.99
70544;BME280;58097;48.364;-1.224;2023-06-24T12:51:55;100239.63;;;30.48;37.87
70544;BME280;58097;48.364;-1.224;2023-06-24T12:54:20;100226.53;;;30.67;38.02
70544;BME280;58097;48.364;-1.224;2023-06-24T12:56:46;100231.94;;;30.79;37.02
70544;BME280;58097;48.364;-1.224;2023-06-24T12:59:11;100221.13;;;30.71;35.72